sensor_id;sensor_type;location;lat;lon;timestamp;P1;durP1;ratioP1;P2;durP2;ratioP2
23684;SDS011;12020;51.384;6.908;2022-12-05T00:01:28;30.30;;;23.20;;
23684;SDS011;12020;51.384;6.908;2022-12-05T00:03:58;34.08;;;23.75;;
23684;SDS011;12020;51.384;6.908;2022-12-05T00:06:26;29.83;;;23.25;;
23684;SDS011;12020;51.384;6.908;2022-12-05T00:08:54;30.98;;;22.73;;
23684;SDS011;12020;51.384;6.908;2022-12-05T00:11:25;31.33;;;23.65;;
23684;SDS011;12020;51.384;6.908;2022-12-05T00:13:53;29.20;;;22.73;;
23684;SDS011;12020;51.384;6.908;2022-12-05T00:16:22;31.20;;;23.17;;
23684;SDS011;12020;51.384;6.908;2022-12-05T00:18:49;30.63;;;24.10;;
23684;SDS011;12020;51.384;6.908;2022-12-05T00:21:25;30.80;;;23.33;;
23684;SDS011;12020;51.384;6.908;2022-12-05T00:23:53;32.13;;;24.77;;
23684;SDS011;12020;51.384;6.908;2022-12-05T00:26:21;30.02;;;23.58;;
23684;SDS011;12020;51.384;6.908;2022-12-05T00:28:47;31.70;;;24.77;;
23684;SDS011;12020;51.384;6.908;2022-12-05T00:31:17;31.05;;;24.08;;
23684;SDS011;12020;51.384;6.908;2022-12-05T00:33:47;32.20;;;23.87;;
23684;SDS011;12020;51.384;6.908;2022-12-05T00:36:20;31.73;;;24.38;;
23684;SDS011;12020;51.384;6.908;2022-12-05T00:38:50;30.33;;;23.67;;
23684;SDS011;12020;51.384;6.908;2022-12-05T00:41:19;34.13;;;25.75;;
23684;SDS011;12020;51.384;6.908;2022-12-05T00:43:49;31.35;;;24.45;;
23684;SDS011;12020;51.384;6.908;2022-12-05T00:46:17;30.75;;;23.95;;
23684;SDS011;12020;51.384;6.908;2022-12-05T00:48:45;32.05;;;24.02;;
23684;SDS011;12020;51.384;6.908;2022-12-05T00:51:16;30.63;;;23.80;;
23684;SDS011;12020;51.384;6.908;2022-12-05T00:53:46;29.60;;;23.27;;
23684;SDS011;12020;51.384;6.908;2022-12-05T00:56:13;31.80;;;23.47;;
23684;SDS011;12020;51.384;6.908;2022-12-05T00:58:43;33.00;;;24.45;;
23684;SDS011;12020;51.384;6.908;2022-12-05T01:01:32;31.47;;;23.83;;
23684;SDS011;12020;51.384;6.908;2022-12-05T01:04:07;29.38;;;23.30;;
23684;SDS011;12020;51.384;6.908;2022-12-05T01:06:36;29.67;;;23.33;;
23684;SDS011;12020;51.384;6.908;2022-12-05T01:09:03;32.10;;;23.80;;
23684;SDS011;12020;51.384;6.908;2022-12-05T01:11:31;30.13;;;23.40;;
23684;SDS011;12020;51.384;6.908;2022-12-05T01:13:57;30.63;;;23.13;;
23684;SDS011;12020;51.384;6.908;2022-12-05T01:16:27;27.65;;;23.00;;
23684;SDS011;12020;51.384;6.908;2022-12-05T01:18:56;27.35;;;22.70;;
23684;SDS011;12020;51.384;6.908;2022-12-05T01:21:24;29.08;;;22.55;;
23684;SDS011;12020;51.384;6.908;2022-12-05T01:23:50;26.40;;;22.10;;
23684;SDS011;12020;51.384;6.908;2022-12-05T01:26:18;31.07;;;22.77;;
23684;SDS011;12020;51.384;6.908;2022-12-05T01:28:45;28.48;;;22.50;;
23684;SDS011;12020;51.384;6.908;2022-12-05T01:31:22;28.05;;;22.15;;
23684;SDS011;12020;51.384;6.908;2022-12-05T01:33:51;30.47;;;23.17;;
23684;SDS011;12020;51.384;6.908;2022-12-05T01:36:26;27.65;;;22.45;;
23684;SDS011;12020;51.384;6.908;2022-12-05T01:38:54;28.77;;;22.13;;
23684;SDS011;12020;51.384;6.908;2022-12-05T01:41:22;29.50;;;22.50;;
23684;SDS011;12020;51.384;6.908;2022-12-05T01:44:05;27.65;;;22.40;;
23684;SDS011;12020;51.384;6.908;2022-12-05T01:46:32;28.50;;;23.17;;
23684;SDS011;12020;51.384;6.908;2022-12-05T01:49:04;29.55;;;22.92;;
23684;SDS011;12020;51.384;6.908;2022-12-05T01:51:38;30.13;;;22.88;;
23684;SDS011;12020;51.384;6.908;2022-12-05T01:54:08;28.52;;;22.55;;
23684;SDS011;12020;51.384;6.908;2022-12-05T01:56:35;28.27;;;22.57;;
23684;SDS011;12020;51.384;6.908;2022-12-05T01:59:04;28.67;;;22.53;;
23684;SDS011;12020;51.384;6.908;2022-12-05T02:01:33;29.77;;;23.03;;
23684;SDS011;12020;51.384;6.908;2022-12-05T02:03:59;28.98;;;22.55;;
23684;SDS011;12020;51.384;6.908;2022-12-05T02:06:28;29.40;;;22.85;;
23684;SDS011;12020;51.384;6.908;2022-12-05T02:08:57;28.97;;;22.30;;
23684;SDS011;12020;51.384;6.908;2022-12-05T02:11:25;29.48;;;22.73;;
23684;SDS011;12020;51.384;6.908;2022-12-05T02:30:16;28.60;;;22.73;;
23684;SDS011;12020;51.384;6.908;2022-12-05T02:43:10;30.48;;;22.67;;
23684;SDS011;12020;51.384;6.908;2022-12-05T02:45:44;26.90;;;22.05;;
23684;SDS011;12020;51.384;6.908;2022-12-05T02:48:14;26.77;;;21.77;;
23684;SDS011;12020;51.384;6.908;2022-12-05T02:50:41;27.90;;;22.52;;
23684;SDS011;12020;51.384;6.908;2022-12-05T02:53:09;26.53;;;21.43;;
23684;SDS011;12020;51.384;6.908;2022-12-05T02:55:37;27.55;;;21.83;;
23684;SDS011;12020;51.384;6.908;2022-12-05T02:58:06;30.02;;;22.50;;
23684;SDS011;12020;51.384;6.908;2022-12-05T03:00:39;28.02;;;21.95;;
23684;SDS011;12020;51.384;6.908;2022-12-05T03:03:18;28.45;;;22.73;;
23684;SDS011;12020;51.384;6.908;2022-12-05T03:08:39;27.27;;;21.10;;
23684;SDS011;12020;51.384;6.908;2022-12-05T03:11:11;28.15;;;21.73;;
23684;SDS011;12020;51.384;6.908;2022-12-05T03:13:41;27.17;;;22.33;;
23684;SDS011;12020;51.384;6.908;2022-12-05T03:16:21;26.65;;;21.13;;
23684;SDS011;12020;51.384;6.908;2022-12-05T03:19:02;27.52;;;21.80;;
23684;SDS011;12020;51.384;6.908;2022-12-05T03:21:33;27.95;;;21.60;;
23684;SDS011;12020;51.384;6.908;2022-12-05T03:24:05;25.95;;;21.23;;
23684;SDS011;12020;51.384;6.908;2022-12-05T03:32:22;25.98;;;20.63;;
23684;SDS011;12020;51.384;6.908;2022-12-05T03:37:52;25.23;;;20.75;;
23684;SDS011;12020;51.384;6.908;2022-12-05T03:43:17;26.27;;;21.20;;
23684;SDS011;12020;51.384;6.908;2022-12-05T03:48:32;28.05;;;21.33;;
23684;SDS011;12020;51.384;6.908;2022-12-05T03:50:58;27.83;;;21.63;;
23684;SDS011;12020;51.384;6.908;2022-12-05T03:53:28;29.48;;;22.42;;
23684;SDS011;12020;51.384;6.908;2022-12-05T03:56:01;27.02;;;21.50;;
23684;SDS011;12020;51.384;6.908;2022-12-05T03:58:40;27.15;;;22.25;;
23684;SDS011;12020;51.384;6.908;2022-12-05T04:01:11;28.40;;;21.52;;
23684;SDS011;12020;51.384;6.908;2022-12-05T04:03:42;26.05;;;21.35;;
23684;SDS011;12020;51.384;6.908;2022-12-05T04:06:32;27.00;;;21.85;;
23684;SDS011;12020;51.384;6.908;2022-12-05T04:09:03;29.92;;;21.80;;
23684;SDS011;12020;51.384;6.908;2022-12-05T04:11:50;27.15;;;21.65;;
23684;SDS011;12020;51.384;6.908;2022-12-05T04:14:27;26.92;;;20.95;;
23684;SDS011;12020;51.384;6.908;2022-12-05T04:17:05;27.80;;;21.02;;
23684;SDS011;12020;51.384;6.908;2022-12-05T04:19:59;26.27;;;20.63;;
23684;SDS011;12020;51.384;6.908;2022-12-05T04:22:46;27.23;;;21.20;;
23684;SDS011;12020;51.384;6.908;2022-12-05T04:25:14;28.02;;;21.42;;
23684;SDS011;12020;51.384;6.908;2022-12-05T04:28:35;25.75;;;20.90;;
23684;SDS011;12020;51.384;6.908;2022-12-05T04:34:05;25.15;;;20.35;;
23684;SDS011;12020;51.384;6.908;2022-12-05T04:36:50;26.92;;;19.95;;
23684;SDS011;12020;51.384;6.908;2022-12-05T04:39:31;24.45;;;19.52;;
23684;SDS011;12020;51.384;6.908;2022-12-05T04:42:06;26.13;;;20.13;;
23684;SDS011;12020;51.384;6.908;2022-12-05T04:44:57;26.02;;;20.27;;
23684;SDS011;12020;51.384;6.908;2022-12-05T04:47:29;24.73;;;19.55;;
23684;SDS011;12020;51.384;6.908;2022-12-05T04:49:59;24.98;;;20.35;;
23684;SDS011;12020;51.384;6.908;2022-12-05T04:52:28;25.03;;;20.57;;
23684;SDS011;12020;51.384;6.908;2022-12-05T04:54:58;24.00;;;19.20;;
23684;SDS011;12020;51.384;6.908;2022-12-05T05:00:26;22.38;;;18.75;;
23684;SDS011;12020;51.384;6.908;2022-12-05T05:03:03;24.10;;;19.08;;
23684;SDS011;12020;51.384;6.908;2022-12-05T05:05:34;23.70;;;19.05;;
23684;SDS011;12020;51.384;6.908;2022-12-05T05:08:02;24.55;;;19.10;;
23684;SDS011;12020;51.384;6.908;2022-12-05T05:13:01;23.15;;;18.92;;
23684;SDS011;12020;51.384;6.908;2022-12-05T05:15:27;24.15;;;18.98;;
23684;SDS011;12020;51.384;6.908;2022-12-05T05:17:53;24.70;;;19.48;;
23684;SDS011;12020;51.384;6.908;2022-12-05T05:20:19;23.52;;;19.35;;
23684;SDS011;12020;51.384;6.908;2022-12-05T05:22:49;25.25;;;20.20;;
23684;SDS011;12020;51.384;6.908;2022-12-05T05:25:16;23.52;;;18.90;;
23684;SDS011;12020;51.384;6.908;2022-12-05T05:27:46;23.83;;;19.08;;
23684;SDS011;12020;51.384;6.908;2022-12-05T05:30:14;22.63;;;18.58;;
23684;SDS011;12020;51.384;6.908;2022-12-05T05:32:41;23.77;;;19.02;;
23684;SDS011;12020;51.384;6.908;2022-12-05T05:35:07;23.33;;;19.00;;
23684;SDS011;12020;51.384;6.908;2022-12-05T05:37:34;23.02;;;19.67;;
23684;SDS011;12020;51.384;6.908;2022-12-05T05:40:00;21.83;;;18.87;;
23684;SDS011;12020;51.384;6.908;2022-12-05T05:42:26;22.27;;;18.23;;
23684;SDS011;12020;51.384;6.908;2022-12-05T05:44:52;22.63;;;18.42;;
23684;SDS011;12020;51.384;6.908;2022-12-05T05:47:19;23.08;;;18.98;;
23684;SDS011;12020;51.384;6.908;2022-12-05T05:49:44;24.27;;;18.88;;
23684;SDS011;12020;51.384;6.908;2022-12-05T05:52:10;22.98;;;19.27;;
23684;SDS011;12020;51.384;6.908;2022-12-05T05:54:36;22.52;;;19.50;;
23684;SDS011;12020;51.384;6.908;2022-12-05T05:57:02;23.97;;;19.90;;
23684;SDS011;12020;51.384;6.908;2022-12-05T05:59:28;24.05;;;20.38;;
23684;SDS011;12020;51.384;6.908;2022-12-05T06:01:53;26.30;;;21.25;;
23684;SDS011;12020;51.384;6.908;2022-12-05T06:04:21;26.75;;;21.63;;
23684;SDS011;12020;51.384;6.908;2022-12-05T06:06:46;25.63;;;21.15;;
23684;SDS011;12020;51.384;6.908;2022-12-05T06:09:13;24.55;;;19.92;;
23684;SDS011;12020;51.384;6.908;2022-12-05T06:11:41;26.23;;;20.73;;
23684;SDS011;12020;51.384;6.908;2022-12-05T06:14:07;23.20;;;19.83;;
23684;SDS011;12020;51.384;6.908;2022-12-05T06:16:34;25.13;;;19.70;;
23684;SDS011;12020;51.384;6.908;2022-12-05T06:19:00;22.75;;;18.35;;
23684;SDS011;12020;51.384;6.908;2022-12-05T06:21:27;21.70;;;17.95;;
23684;SDS011;12020;51.384;6.908;2022-12-05T06:23:53;22.25;;;18.55;;
23684;SDS011;12020;51.384;6.908;2022-12-05T06:26:20;24.08;;;18.52;;
23684;SDS011;12020;51.384;6.908;2022-12-05T06:28:47;20.88;;;17.08;;
23684;SDS011;12020;51.384;6.908;2022-12-05T06:31:15;19.50;;;17.40;;
23684;SDS011;12020;51.384;6.908;2022-12-05T06:33:45;21.53;;;18.10;;
23684;SDS011;12020;51.384;6.908;2022-12-05T06:36:13;23.15;;;18.30;;
23684;SDS011;12020;51.384;6.908;2022-12-05T06:38:41;21.20;;;18.08;;
23684;SDS011;12020;51.384;6.908;2022-12-05T06:41:08;22.40;;;18.60;;
23684;SDS011;12020;51.384;6.908;2022-12-05T06:43:35;21.02;;;17.42;;
23684;SDS011;12020;51.384;6.908;2022-12-05T06:46:07;20.63;;;17.63;;
23684;SDS011;12020;51.384;6.908;2022-12-05T06:48:36;20.42;;;18.20;;
23684;SDS011;12020;51.384;6.908;2022-12-05T06:51:02;21.17;;;17.65;;
23684;SDS011;12020;51.384;6.908;2022-12-05T06:53:28;22.05;;;17.83;;
23684;SDS011;12020;51.384;6.908;2022-12-05T06:55:57;22.38;;;18.05;;
23684;SDS011;12020;51.384;6.908;2022-12-05T06:58:24;19.98;;;17.70;;
23684;SDS011;12020;51.384;6.908;2022-12-05T07:00:50;20.23;;;17.58;;
23684;SDS011;12020;51.384;6.908;2022-12-05T07:03:35;20.70;;;17.25;;
23684;SDS011;12020;51.384;6.908;2022-12-05T07:06:02;21.48;;;18.23;;
23684;SDS011;12020;51.384;6.908;2022-12-05T07:08:30;21.98;;;18.30;;
23684;SDS011;12020;51.384;6.908;2022-12-05T07:11:01;21.13;;;18.10;;
23684;SDS011;12020;51.384;6.908;2022-12-05T07:13:27;19.73;;;17.25;;
23684;SDS011;12020;51.384;6.908;2022-12-05T07:15:53;20.55;;;18.05;;
23684;SDS011;12020;51.384;6.908;2022-12-05T07:18:20;21.30;;;18.13;;
23684;SDS011;12020;51.384;6.908;2022-12-05T07:20:54;21.90;;;18.35;;
23684;SDS011;12020;51.384;6.908;2022-12-05T07:23:23;22.48;;;18.38;;
23684;SDS011;12020;51.384;6.908;2022-12-05T07:25:49;20.92;;;18.20;;
23684;SDS011;12020;51.384;6.908;2022-12-05T07:28:15;21.17;;;17.92;;
23684;SDS011;12020;51.384;6.908;2022-12-05T07:30:41;20.77;;;18.10;;
23684;SDS011;12020;51.384;6.908;2022-12-05T07:33:07;21.50;;;18.55;;
23684;SDS011;12020;51.384;6.908;2022-12-05T07:35:33;23.33;;;18.60;;
23684;SDS011;12020;51.384;6.908;2022-12-05T07:37:58;23.10;;;18.40;;
23684;SDS011;12020;51.384;6.908;2022-12-05T07:40:24;21.50;;;18.93;;
23684;SDS011;12020;51.384;6.908;2022-12-05T07:42:50;22.97;;;19.80;;
23684;SDS011;12020;51.384;6.908;2022-12-05T07:45:18;24.50;;;19.80;;
23684;SDS011;12020;51.384;6.908;2022-12-05T07:47:44;22.85;;;19.00;;
23684;SDS011;12020;51.384;6.908;2022-12-05T07:50:10;23.05;;;19.33;;
23684;SDS011;12020;51.384;6.908;2022-12-05T07:52:36;23.13;;;19.05;;
23684;SDS011;12020;51.384;6.908;2022-12-05T07:55:06;21.98;;;18.88;;
23684;SDS011;12020;51.384;6.908;2022-12-05T07:57:32;23.33;;;19.15;;
23684;SDS011;12020;51.384;6.908;2022-12-05T07:59:58;23.17;;;19.65;;
23684;SDS011;12020;51.384;6.908;2022-12-05T08:02:24;22.60;;;19.48;;
23684;SDS011;12020;51.384;6.908;2022-12-05T08:04:51;24.35;;;19.83;;
23684;SDS011;12020;51.384;6.908;2022-12-05T08:07:17;24.40;;;20.00;;
23684;SDS011;12020;51.384;6.908;2022-12-05T08:09:43;23.77;;;20.35;;
23684;SDS011;12020;51.384;6.908;2022-12-05T08:12:09;25.75;;;21.48;;
23684;SDS011;12020;51.384;6.908;2022-12-05T08:14:35;23.80;;;20.83;;
23684;SDS011;12020;51.384;6.908;2022-12-05T08:17:00;23.70;;;20.97;;
23684;SDS011;12020;51.384;6.908;2022-12-05T08:19:26;23.02;;;20.58;;
23684;SDS011;12020;51.384;6.908;2022-12-05T08:21:53;22.33;;;20.00;;
23684;SDS011;12020;51.384;6.908;2022-12-05T08:24:19;25.77;;;21.17;;
23684;SDS011;12020;51.384;6.908;2022-12-05T08:26:46;24.08;;;20.85;;
23684;SDS011;12020;51.384;6.908;2022-12-05T08:29:12;24.13;;;21.23;;
23684;SDS011;12020;51.384;6.908;2022-12-05T08:31:43;24.17;;;20.60;;
23684;SDS011;12020;51.384;6.908;2022-12-05T08:34:14;24.10;;;20.50;;
23684;SDS011;12020;51.384;6.908;2022-12-05T08:36:41;24.70;;;20.67;;
23684;SDS011;12020;51.384;6.908;2022-12-05T08:39:09;22.52;;;19.15;;
23684;SDS011;12020;51.384;6.908;2022-12-05T08:41:39;20.00;;;17.90;;
23684;SDS011;12020;51.384;6.908;2022-12-05T08:44:06;20.58;;;18.38;;
23684;SDS011;12020;51.384;6.908;2022-12-05T08:46:35;20.02;;;17.85;;
23684;SDS011;12020;51.384;6.908;2022-12-05T08:49:03;19.43;;;17.40;;
23684;SDS011;12020;51.384;6.908;2022-12-05T08:51:30;18.75;;;16.85;;
23684;SDS011;12020;51.384;6.908;2022-12-05T08:53:56;19.17;;;17.17;;
23684;SDS011;12020;51.384;6.908;2022-12-05T08:56:22;19.33;;;17.30;;
23684;SDS011;12020;51.384;6.908;2022-12-05T08:58:48;19.83;;;17.73;;
23684;SDS011;12020;51.384;6.908;2022-12-05T09:01:15;20.38;;;18.27;;
23684;SDS011;12020;51.384;6.908;2022-12-05T09:03:45;20.08;;;17.98;;
23684;SDS011;12020;51.384;6.908;2022-12-05T09:06:13;21.83;;;19.45;;
23684;SDS011;12020;51.384;6.908;2022-12-05T09:08:40;20.65;;;18.40;;
23684;SDS011;12020;51.384;6.908;2022-12-05T09:11:15;20.63;;;17.75;;
23684;SDS011;12020;51.384;6.908;2022-12-05T09:13:42;20.00;;;17.85;;
23684;SDS011;12020;51.384;6.908;2022-12-05T09:16:10;20.57;;;18.37;;
23684;SDS011;12020;51.384;6.908;2022-12-05T09:18:38;20.98;;;18.73;;
23684;SDS011;12020;51.384;6.908;2022-12-05T09:21:08;21.57;;;19.03;;
23684;SDS011;12020;51.384;6.908;2022-12-05T09:23:41;22.40;;;20.10;;
23684;SDS011;12020;51.384;6.908;2022-12-05T09:26:09;22.30;;;19.90;;
23684;SDS011;12020;51.384;6.908;2022-12-05T09:28:36;23.52;;;21.02;;
23684;SDS011;12020;51.384;6.908;2022-12-05T09:31:04;21.92;;;19.63;;
23684;SDS011;12020;51.384;6.908;2022-12-05T09:33:38;22.27;;;19.77;;
23684;SDS011;12020;51.384;6.908;2022-12-05T09:36:13;21.88;;;19.27;;
23684;SDS011;12020;51.384;6.908;2022-12-05T09:38:42;20.52;;;18.30;;
23684;SDS011;12020;51.384;6.908;2022-12-05T09:43:59;20.70;;;18.50;;
23684;SDS011;12020;51.384;6.908;2022-12-05T09:46:48;21.42;;;17.88;;
23684;SDS011;12020;51.384;6.908;2022-12-05T09:49:20;19.45;;;16.92;;
23684;SDS011;12020;51.384;6.908;2022-12-05T09:51:47;18.73;;;16.73;;
23684;SDS011;12020;51.384;6.908;2022-12-05T09:54:15;18.67;;;16.67;;
23684;SDS011;12020;51.384;6.908;2022-12-05T09:56:42;18.23;;;16.33;;
23684;SDS011;12020;51.384;6.908;2022-12-05T09:59:13;17.92;;;16.00;;
23684;SDS011;12020;51.384;6.908;2022-12-05T10:01:59;17.50;;;15.70;;
23684;SDS011;12020;51.384;6.908;2022-12-05T10:04:57;18.63;;;16.73;;
23684;SDS011;12020;51.384;6.908;2022-12-05T10:07:50;17.65;;;15.85;;
23684;SDS011;12020;51.384;6.908;2022-12-05T10:13:24;17.73;;;15.82;;
23684;SDS011;12020;51.384;6.908;2022-12-05T10:16:02;17.27;;;15.48;;
23684;SDS011;12020;51.384;6.908;2022-12-05T10:18:51;17.17;;;15.40;;
23684;SDS011;12020;51.384;6.908;2022-12-05T10:24:35;17.08;;;15.35;;
23684;SDS011;12020;51.384;6.908;2022-12-05T10:27:06;17.77;;;15.88;;
23684;SDS011;12020;51.384;6.908;2022-12-05T10:29:39;17.40;;;15.57;;
23684;SDS011;12020;51.384;6.908;2022-12-05T10:32:36;16.60;;;14.82;;
23684;SDS011;12020;51.384;6.908;2022-12-05T10:37:51;16.90;;;15.10;;
23684;SDS011;12020;51.384;6.908;2022-12-05T10:40:22;16.58;;;14.88;;
23684;SDS011;12020;51.384;6.908;2022-12-05T10:42:58;16.67;;;14.98;;
23684;SDS011;12020;51.384;6.908;2022-12-05T10:45:23;15.73;;;14.13;;
23684;SDS011;12020;51.384;6.908;2022-12-05T10:47:52;16.50;;;14.90;;
23684;SDS011;12020;51.384;6.908;2022-12-05T10:50:29;16.48;;;14.77;;
23684;SDS011;12020;51.384;6.908;2022-12-05T10:52:57;16.33;;;14.77;;
23684;SDS011;12020;51.384;6.908;2022-12-05T10:55:29;16.63;;;15.00;;
23684;SDS011;12020;51.384;6.908;2022-12-05T10:58:34;16.17;;;14.57;;
23684;SDS011;12020;51.384;6.908;2022-12-05T11:00:55;16.30;;;14.70;;
23684;SDS011;12020;51.384;6.908;2022-12-05T11:05:55;16.15;;;14.55;;
23684;SDS011;12020;51.384;6.908;2022-12-05T11:08:24;15.88;;;14.27;;
23684;SDS011;12020;51.384;6.908;2022-12-05T11:11:05;15.38;;;13.88;;
23684;SDS011;12020;51.384;6.908;2022-12-05T11:13:55;15.35;;;13.85;;
23684;SDS011;12020;51.384;6.908;2022-12-05T11:16:25;15.27;;;13.88;;
23684;SDS011;12020;51.384;6.908;2022-12-05T11:19:22;16.23;;;14.57;;
23684;SDS011;12020;51.384;6.908;2022-12-05T11:21:46;16.20;;;14.70;;
23684;SDS011;12020;51.384;6.908;2022-12-05T11:24:26;16.35;;;14.75;;
23684;SDS011;12020;51.384;6.908;2022-12-05T11:26:54;15.32;;;13.88;;
23684;SDS011;12020;51.384;6.908;2022-12-05T11:29:28;15.52;;;14.07;;
23684;SDS011;12020;51.384;6.908;2022-12-05T11:32:03;15.38;;;13.88;;
23684;SDS011;12020;51.384;6.908;2022-12-05T11:34:38;16.45;;;14.90;;
23684;SDS011;12020;51.384;6.908;2022-12-05T11:37:11;16.65;;;14.98;;
23684;SDS011;12020;51.384;6.908;2022-12-05T11:39:40;17.65;;;15.95;;
23684;SDS011;12020;51.384;6.908;2022-12-05T11:50:49;18.27;;;16.50;;
23684;SDS011;12020;51.384;6.908;2022-12-05T11:56:21;17.00;;;15.38;;
23684;SDS011;12020;51.384;6.908;2022-12-05T11:59:09;17.83;;;16.13;;
23684;SDS011;12020;51.384;6.908;2022-12-05T12:01:56;17.50;;;15.75;;
23684;SDS011;12020;51.384;6.908;2022-12-05T12:10:16;18.08;;;16.33;;
23684;SDS011;12020;51.384;6.908;2022-12-05T12:13:00;18.33;;;16.52;;
23684;SDS011;12020;51.384;6.908;2022-12-05T12:15:45;18.35;;;16.65;;
23684;SDS011;12020;51.384;6.908;2022-12-05T12:26:32;17.83;;;16.08;;
23684;SDS011;12020;51.384;6.908;2022-12-05T12:37:01;18.00;;;16.30;;
23684;SDS011;12020;51.384;6.908;2022-12-05T12:42:54;18.83;;;16.92;;
23684;SDS011;12020;51.384;6.908;2022-12-05T12:45:31;18.50;;;16.60;;
23684;SDS011;12020;51.384;6.908;2022-12-05T12:50:55;18.55;;;16.75;;
23684;SDS011;12020;51.384;6.908;2022-12-05T12:56:17;17.75;;;15.98;;
23684;SDS011;12020;51.384;6.908;2022-12-05T12:58:49;17.92;;;16.13;;
23684;SDS011;12020;51.384;6.908;2022-12-05T13:01:45;18.05;;;16.33;;
23684;SDS011;12020;51.384;6.908;2022-12-05T13:04:13;18.08;;;16.27;;
23684;SDS011;12020;51.384;6.908;2022-12-05T13:06:44;17.65;;;15.93;;
23684;SDS011;12020;51.384;6.908;2022-12-05T13:09:33;17.90;;;16.10;;
23684;SDS011;12020;51.384;6.908;2022-12-05T13:12:01;17.77;;;16.08;;
23684;SDS011;12020;51.384;6.908;2022-12-05T13:14:31;17.92;;;16.13;;
23684;SDS011;12020;51.384;6.908;2022-12-05T13:17:01;17.47;;;15.77;;
23684;SDS011;12020;51.384;6.908;2022-12-05T13:19:36;18.20;;;16.30;;
23684;SDS011;12020;51.384;6.908;2022-12-05T13:22:07;17.60;;;15.90;;
23684;SDS011;12020;51.384;6.908;2022-12-05T13:24:37;17.63;;;15.80;;
23684;SDS011;12020;51.384;6.908;2022-12-05T13:27:08;17.83;;;16.10;;
23684;SDS011;12020;51.384;6.908;2022-12-05T13:29:41;17.27;;;15.52;;
23684;SDS011;12020;51.384;6.908;2022-12-05T13:32:34;17.63;;;15.82;;
23684;SDS011;12020;51.384;6.908;2022-12-05T13:35:11;17.95;;;16.05;;
23684;SDS011;12020;51.384;6.908;2022-12-05T13:38:02;18.25;;;16.33;;
23684;SDS011;12020;51.384;6.908;2022-12-05T13:40:50;18.15;;;16.25;;
23684;SDS011;12020;51.384;6.908;2022-12-05T13:43:43;18.20;;;16.30;;
23684;SDS011;12020;51.384;6.908;2022-12-05T13:46:33;19.00;;;17.10;;
23684;SDS011;12020;51.384;6.908;2022-12-05T13:51:40;18.30;;;16.50;;
23684;SDS011;12020;51.384;6.908;2022-12-05T13:54:14;17.75;;;16.02;;
23684;SDS011;12020;51.384;6.908;2022-12-05T13:56:53;18.60;;;16.63;;
23684;SDS011;12020;51.384;6.908;2022-12-05T14:07:40;18.00;;;16.23;;
23684;SDS011;12020;51.384;6.908;2022-12-05T14:10:09;18.10;;;16.20;;
23684;SDS011;12020;51.384;6.908;2022-12-05T14:15:34;17.52;;;15.73;;
23684;SDS011;12020;51.384;6.908;2022-12-05T14:38:03;16.70;;;15.10;;
23684;SDS011;12020;51.384;6.908;2022-12-05T14:40:32;16.90;;;15.30;;
23684;SDS011;12020;51.384;6.908;2022-12-05T14:43:00;17.15;;;15.48;;
23684;SDS011;12020;51.384;6.908;2022-12-05T14:45:36;16.85;;;15.23;;
23684;SDS011;12020;51.384;6.908;2022-12-05T14:50:42;17.10;;;15.40;;
23684;SDS011;12020;51.384;6.908;2022-12-05T14:53:14;18.27;;;16.47;;
23684;SDS011;12020;51.384;6.908;2022-12-05T15:01:47;16.97;;;15.27;;
23684;SDS011;12020;51.384;6.908;2022-12-05T15:04:06;16.25;;;14.75;;
23684;SDS011;12020;51.384;6.908;2022-12-05T15:09:23;16.13;;;14.63;;
23684;SDS011;12020;51.384;6.908;2022-12-05T15:11:57;15.68;;;14.27;;
23684;SDS011;12020;51.384;6.908;2022-12-05T15:14:26;15.63;;;14.20;;
23684;SDS011;12020;51.384;6.908;2022-12-05T15:16:54;16.35;;;14.85;;
23684;SDS011;12020;51.384;6.908;2022-12-05T15:19:28;15.70;;;14.20;;
23684;SDS011;12020;51.384;6.908;2022-12-05T15:22:07;15.75;;;14.15;;
23684;SDS011;12020;51.384;6.908;2022-12-05T15:24:37;15.43;;;14.00;;
23684;SDS011;12020;51.384;6.908;2022-12-05T15:27:04;15.73;;;14.23;;
23684;SDS011;12020;51.384;6.908;2022-12-05T15:29:35;16.02;;;14.52;;
23684;SDS011;12020;51.384;6.908;2022-12-05T15:32:03;15.38;;;13.88;;
23684;SDS011;12020;51.384;6.908;2022-12-05T15:34:49;14.57;;;13.18;;
23684;SDS011;12020;51.384;6.908;2022-12-05T15:42:36;14.95;;;13.55;;
23684;SDS011;12020;51.384;6.908;2022-12-05T15:47:42;16.38;;;14.88;;
23684;SDS011;12020;51.384;6.908;2022-12-05T15:50:29;16.33;;;14.85;;
23684;SDS011;12020;51.384;6.908;2022-12-05T15:53:08;16.48;;;14.88;;
23684;SDS011;12020;51.384;6.908;2022-12-05T15:55:53;15.05;;;13.60;;
23684;SDS011;12020;51.384;6.908;2022-12-05T15:58:32;15.70;;;14.20;;
23684;SDS011;12020;51.384;6.908;2022-12-05T16:01:20;15.10;;;13.70;;
23684;SDS011;12020;51.384;6.908;2022-12-05T16:06:26;15.20;;;13.80;;
23684;SDS011;12020;51.384;6.908;2022-12-05T16:08:54;14.45;;;13.05;;
23684;SDS011;12020;51.384;6.908;2022-12-05T16:11:22;14.23;;;12.93;;
23684;SDS011;12020;51.384;6.908;2022-12-05T16:13:49;14.25;;;12.95;;
23684;SDS011;12020;51.384;6.908;2022-12-05T16:16:24;14.13;;;12.82;;
23684;SDS011;12020;51.384;6.908;2022-12-05T16:18:56;14.20;;;12.90;;
23684;SDS011;12020;51.384;6.908;2022-12-05T16:21:37;13.83;;;12.53;;
23684;SDS011;12020;51.384;6.908;2022-12-05T16:24:06;13.85;;;12.60;;
23684;SDS011;12020;51.384;6.908;2022-12-05T16:26:41;14.20;;;12.90;;
23684;SDS011;12020;51.384;6.908;2022-12-05T16:29:27;15.00;;;13.53;;
23684;SDS011;12020;51.384;6.908;2022-12-05T16:31:56;14.63;;;13.32;;
23684;SDS011;12020;51.384;6.908;2022-12-05T16:34:23;15.15;;;13.75;;
23684;SDS011;12020;51.384;6.908;2022-12-05T16:36:51;15.30;;;13.80;;
23684;SDS011;12020;51.384;6.908;2022-12-05T16:39:20;14.23;;;12.93;;
23684;SDS011;12020;51.384;6.908;2022-12-05T16:41:47;15.17;;;13.77;;
23684;SDS011;12020;51.384;6.908;2022-12-05T16:46:55;13.40;;;12.20;;
23684;SDS011;12020;51.384;6.908;2022-12-05T16:52:15;13.30;;;12.00;;
23684;SDS011;12020;51.384;6.908;2022-12-05T16:54:41;14.18;;;12.90;;
23684;SDS011;12020;51.384;6.908;2022-12-05T16:57:11;13.70;;;12.40;;
23684;SDS011;12020;51.384;6.908;2022-12-05T16:59:39;13.98;;;12.68;;
23684;SDS011;12020;51.384;6.908;2022-12-05T17:02:16;13.68;;;12.38;;
23684;SDS011;12020;51.384;6.908;2022-12-05T17:04:44;13.93;;;12.63;;
23684;SDS011;12020;51.384;6.908;2022-12-05T17:07:11;13.40;;;12.20;;
23684;SDS011;12020;51.384;6.908;2022-12-05T17:09:37;13.35;;;12.13;;
23684;SDS011;12020;51.384;6.908;2022-12-05T17:12:06;13.30;;;12.07;;
23684;SDS011;12020;51.384;6.908;2022-12-05T17:14:38;13.05;;;11.82;;
23684;SDS011;12020;51.384;6.908;2022-12-05T17:17:08;13.93;;;12.65;;
23684;SDS011;12020;51.384;6.908;2022-12-05T17:19:39;14.07;;;12.77;;
23684;SDS011;12020;51.384;6.908;2022-12-05T17:22:06;13.98;;;12.68;;
23684;SDS011;12020;51.384;6.908;2022-12-05T17:24:32;13.82;;;12.55;;
23684;SDS011;12020;51.384;6.908;2022-12-05T17:26:58;14.27;;;12.90;;
23684;SDS011;12020;51.384;6.908;2022-12-05T17:29:24;13.43;;;12.23;;
23684;SDS011;12020;51.384;6.908;2022-12-05T17:31:50;13.27;;;12.07;;
23684;SDS011;12020;51.384;6.908;2022-12-05T17:34:17;13.07;;;11.85;;
23684;SDS011;12020;51.384;6.908;2022-12-05T17:36:43;12.65;;;11.45;;